Time;durP1;ratioP1;P1;durP2;ratioP2;P2;SDS_P1;SDS_P2;PMS_P1;PMS_P2;Temp;Humidity;BMP_temperature;BMP_pressure;BME280_temperature;BME280_humidity;BME280_pressure;Samples;Min_cycle;Max_cycle;Signal;HPM_P1;HPM_P2
2021/10/04 00:00:52;;;;;;;16.20;8.00;;;;;;;;;;5007494;28;20026;-44
2021/10/04 00:03:18;;;;;;;12.70;6.05;;;;;;;;;;5002859;28;20105;-45
2021/10/04 00:05:44;;;;;;;13.20;7.43;;;;;;;;;;5011813;28;20030;-54
2021/10/04 00:08:10;;;;;;;18.73;8.93;;;;;;;;;;5011801;28;20029;-44
2021/10/04 00:10:36;;;;;;;11.57;7.10;;;;;;;;;;5008217;28;20101;-46
2021/10/04 00:13:03;;;;;;;13.07;7.90;;;;;;;;;;5003242;28;20076;-44
2021/10/04 00:15:30;;;;;;;15.68;9.88;;;;;;;;;;4984568;28;20026;-44
2021/10/04 00:17:56;;;;;;;16.75;6.65;;;;;;;;;;5012753;28;20030;-44
2021/10/04 00:20:23;;;;;;;10.98;7.22;;;;;;;;;;5009165;28;20053;-45
2021/10/04 00:22:49;;;;;;;12.13;6.65;;;;;;;;;;5015832;28;20021;-46
2021/10/04 00:25:15;;;;;;;12.63;7.32;;;;;;;;;;5015622;28;20478;-50
2021/10/04 00:27:41;;;;;;;17.90;7.00;;;;;;;;;;5015541;28;20121;-50
2021/10/04 00:30:09;;;;;;;15.13;8.10;;;;;;;;;;5015518;28;20489;-48
2021/10/04 00:32:36;;;;;;;14.80;7.18;;;;;;;;;;5015344;28;20042;-46
2021/10/04 00:35:03;;;;;;;17.67;9.43;;;;;;;;;;5014379;28;20042;-52
2021/10/04 00:37:29;;;;;;;14.60;6.55;;;;;;;;;;5015406;28;20496;-54
2021/10/04 00:39:55;;;;;;;20.95;10.38;;;;;;;;;;5015235;28;20157;-52
2021/10/04 00:42:24;;;;;;;16.15;7.85;;;;;;;;;;4997251;28;20402;-48
2021/10/04 00:44:50;;;;;;;13.13;6.72;;;;;;;;;;5015366;28;20037;-48
2021/10/04 00:47:19;;;;;;;14.40;8.15;;;;;;;;;;5015241;28;20111;-59
2021/10/04 00:49:46;;;;;;;24.10;12.07;;;;;;;;;;5015080;28;20022;-49
2021/10/04 00:52:12;;;;;;;22.95;10.75;;;;;;;;;;5014919;28;20030;-57
2021/10/04 00:54:40;;;;;;;13.40;8.45;;;;;;;;;;5014975;28;20466;-47
2021/10/04 00:57:07;;;;;;;12.73;6.93;;;;;;;;;;5015086;28;20401;-46
2021/10/04 00:59:33;;;;;;;13.70;6.43;;;;;;;;;;5015225;28;20319;-60
2021/10/04 01:02:00;;;;;;;12.07;8.15;;;;;;;;;;5014990;28;20041;-46
2021/10/04 01:04:26;;;;;;;13.20;7.50;;;;;;;;;;5014890;28;20030;-54
2021/10/04 01:06:53;;;;;;;11.02;7.25;;;;;;;;;;5015009;28;20030;-51
2021/10/04 01:09:19;;;;;;;14.23;6.82;;;;;;;;;;5014822;28;20462;-59
2021/10/04 01:11:45;;;;;;;11.27;6.95;;;;;;;;;;5014731;28;20026;-56
2021/10/04 01:14:11;;;;;;;13.60;7.30;;;;;;;;;;5014968;28;20385;-55
2021/10/04 01:16:37;;;;;;;14.05;7.05;;;;;;;;;;5014808;28;20502;-53
2021/10/04 01:19:03;;;;;;;12.93;7.43;;;;;;;;;;5014733;28;20029;-55
2021/10/04 01:21:30;;;;;;;22.38;11.95;;;;;;;;;;5014631;28;20018;-55
2021/10/04 01:23:56;;;;;;;17.30;7.80;;;;;;;;;;5014545;28;20037;-47
2021/10/04 01:26:24;;;;;;;20.13;9.88;;;;;;;;;;5014337;28;20026;-51
2021/10/04 01:28:52;;;;;;;12.85;7.50;;;;;;;;;;5014428;28;20057;-49
2021/10/04 01:31:22;;;;;;;15.45;7.43;;;;;;;;;;5014405;28;20076;-52
2021/10/04 01:33:52;;;;;;;12.27;7.00;;;;;;;;;;5014186;28;20084;-52
2021/10/04 01:36:20;;;;;;;17.08;10.45;;;;;;;;;;5014745;28;20057;-51
2021/10/04 01:38:46;;;;;;;15.35;6.60;;;;;;;;;;5014302;28;20030;-51
2021/10/04 01:41:12;;;;;;;13.00;7.30;;;;;;;;;;5014240;28;20437;-49
2021/10/04 01:43:39;;;;;;;16.30;7.85;;;;;;;;;;5014410;28;20026;-54
2021/10/04 01:46:05;;;;;;;14.38;7.88;;;;;;;;;;5014199;28;20030;-44
2021/10/04 01:48:31;;;;;;;15.43;7.40;;;;;;;;;;5014131;28;20080;-46
2021/10/04 01:50:57;;;;;;;13.98;7.30;;;;;;;;;;5014319;28;20088;-45
2021/10/04 01:53:23;;;;;;;13.82;8.45;;;;;;;;;;5014130;28;20044;-45
2021/10/04 01:55:49;;;;;;;14.80;8.35;;;;;;;;;;5014142;28;20018;-51
2021/10/04 01:58:16;;;;;;;10.50;6.60;;;;;;;;;;5014307;28;20033;-47
2021/10/04 02:00:42;;;;;;;14.40;7.50;;;;;;;;;;5014187;28;20026;-46
2021/10/04 02:03:08;;;;;;;16.35;7.68;;;;;;;;;;5014152;28;20440;-45
2021/10/04 02:05:34;;;;;;;10.20;6.97;;;;;;;;;;5014091;28;20030;-51
2021/10/04 02:08:00;;;;;;;13.98;7.47;;;;;;;;;;5014077;28;20390;-50
2021/10/04 02:10:28;;;;;;;15.65;7.32;;;;;;;;;;5013663;28;20032;-49
2021/10/04 02:12:56;;;;;;;11.45;7.00;;;;;;;;;;5013872;28;20038;-49
2021/10/04 02:15:22;;;;;;;14.80;7.88;;;;;;;;;;5013982;28;20026;-56
2021/10/04 02:17:53;;;;;;;13.40;7.65;;;;;;;;;;5013757;28;20076;-53
2021/10/04 02:20:24;;;;;;;14.60;7.20;;;;;;;;;;5013678;28;20485;-55
2021/10/04 02:22:50;;;;;;;15.52;7.13;;;;;;;;;;5013922;28;20029;-52
2021/10/04 02:25:16;;;;;;;11.45;6.72;;;;;;;;;;5013496;28;20100;-48
2021/10/04 02:27:43;;;;;;;15.25;7.63;;;;;;;;;;5013567;28;20029;-54
2021/10/04 02:30:12;;;;;;;12.73;7.25;;;;;;;;;;5013427;28;20026;-53
2021/10/04 02:32:38;;;;;;;18.40;7.32;;;;;;;;;;5013585;28;20051;-51
2021/10/04 02:35:04;;;;;;;14.23;7.00;;;;;;;;;;5013348;28;20038;-52
2021/10/04 02:37:30;;;;;;;13.95;7.25;;;;;;;;;;5013476;28;20038;-47
2021/10/04 02:39:59;;;;;;;13.75;8.27;;;;;;;;;;5013450;28;20022;-46
2021/10/04 02:42:25;;;;;;;10.13;6.55;;;;;;;;;;5013824;28;20101;-54
2021/10/04 02:44:51;;;;;;;12.60;7.05;;;;;;;;;;5013476;28;20029;-46
2021/10/04 02:47:17;;;;;;;13.43;7.32;;;;;;;;;;5013594;28;20092;-52
2021/10/04 02:49:43;;;;;;;18.20;6.93;;;;;;;;;;5013681;28;20098;-53
2021/10/04 02:52:13;;;;;;;12.90;7.20;;;;;;;;;;5013391;28;20045;-46
2021/10/04 02:54:39;;;;;;;17.50;7.20;;;;;;;;;;5013178;28;20030;-49
2021/10/04 02:57:05;;;;;;;18.77;7.75;;;;;;;;;;5013292;28;20374;-48
2021/10/04 02:59:31;;;;;;;11.65;7.07;;;;;;;;;;5016253;28;20022;-53
2021/10/04 03:01:57;;;;;;;15.70;7.88;;;;;;;;;;5017294;28;20378;-49
2021/10/04 03:04:23;;;;;;;12.98;7.80;;;;;;;;;;5017255;28;20030;-50
2021/10/04 03:06:49;;;;;;;14.18;7.20;;;;;;;;;;5017404;28;20037;-50
2021/10/04 03:09:15;;;;;;;12.50;7.60;;;;;;;;;;5017362;28;20505;-48
2021/10/04 03:11:41;;;;;;;11.50;6.40;;;;;;;;;;5017212;28;20397;-46
2021/10/04 03:14:08;;;;;;;12.20;7.00;;;;;;;;;;5017325;28;20422;-49
2021/10/04 03:16:34;;;;;;;10.30;6.50;;;;;;;;;;5017092;28;20026;-47
2021/10/04 03:19:00;;;;;;;18.90;7.07;;;;;;;;;;5017109;28;20029;-51
2021/10/04 03:21:26;;;;;;;12.45;7.05;;;;;;;;;;5016982;28;20101;-46
2021/10/04 03:23:53;;;;;;;15.07;6.65;;;;;;;;;;5016954;28;20026;-46
2021/10/04 03:26:21;;;;;;;12.27;6.82;;;;;;;;;;5016767;28;20029;-54
2021/10/04 03:28:47;;;;;;;14.68;6.90;;;;;;;;;;5017121;28;20024;-51
2021/10/04 03:31:13;;;;;;;14.32;5.97;;;;;;;;;;5017130;28;20072;-52
2021/10/04 03:33:41;;;;;;;13.35;6.88;;;;;;;;;;5016602;28;20092;-49
2021/10/04 03:36:08;;;;;;;11.05;6.63;;;;;;;;;;5016923;28;20061;-47
2021/10/04 03:38:34;;;;;;;15.45;7.60;;;;;;;;;;5016783;28;20030;-46
2021/10/04 03:41:00;;;;;;;10.43;6.32;;;;;;;;;;5016404;28;20064;-46
2021/10/04 03:43:26;;;;;;;11.13;6.05;;;;;;;;;;5016827;28;20048;-46
2021/10/04 03:45:52;;;;;;;10.77;6.80;;;;;;;;;;5016531;28;20030;-45
2021/10/04 03:48:19;;;;;;;14.77;6.55;;;;;;;;;;5016506;28;20033;-46
2021/10/04 03:50:47;;;;;;;14.02;6.90;;;;;;;;;;5017205;28;20026;-45
2021/10/04 03:53:13;;;;;;;10.15;6.30;;;;;;;;;;5016451;28;20117;-46
2021/10/04 03:55:39;;;;;;;11.90;7.22;;;;;;;;;;5016242;28;20030;-46
2021/10/04 03:58:08;;;;;;;13.35;7.05;;;;;;;;;;4998549;28;20390;-46
2021/10/04 04:00:34;;;;;;;12.32;6.97;;;;;;;;;;5016443;28;20014;-46
2021/10/04 04:03:00;;;;;;;15.63;7.20;;;;;;;;;;5016510;28;20049;-45
2021/10/04 04:05:26;;;;;;;13.63;7.05;;;;;;;;;;5016223;28;20030;-47
2021/10/04 04:07:52;;;;;;;10.65;7.05;;;;;;;;;;5016250;28;20481;-46
2021/10/04 04:10:21;;;;;;;14.45;6.25;;;;;;;;;;5014893;28;20026;-46
2021/10/04 04:12:47;;;;;;;8.35;5.63;;;;;;;;;;5016040;28;20489;-46
2021/10/04 04:15:13;;;;;;;11.25;6.47;;;;;;;;;;5015980;28;20033;-46
2021/10/04 04:17:42;;;;;;;11.18;6.07;;;;;;;;;;5016328;28;20053;-46
2021/10/04 04:20:08;;;;;;;12.05;7.45;;;;;;;;;;5016014;28;20026;-46
2021/10/04 04:22:34;;;;;;;20.60;8.10;;;;;;;;;;5015892;28;20030;-46
2021/10/04 04:25:01;;;;;;;12.60;6.82;;;;;;;;;;5015685;28;20068;-46
2021/10/04 04:27:27;;;;;;;15.50;7.68;;;;;;;;;;5015849;28;20379;-45
2021/10/04 04:29:53;;;;;;;19.67;7.18;;;;;;;;;;4998519;28;20109;-49
2021/10/04 04:32:19;;;;;;;20.23;9.20;;;;;;;;;;5015608;28;20030;-46
2021/10/04 04:34:45;;;;;;;16.23;9.15;;;;;;;;;;5015388;28;20413;-45
2021/10/04 04:37:12;;;;;;;12.40;7.28;;;;;;;;;;5015536;28;20029;-46
2021/10/04 04:39:38;;;;;;;15.90;7.38;;;;;;;;;;5015275;28;20467;-47
2021/10/04 04:42:04;;;;;;;12.48;7.35;;;;;;;;;;5015435;28;20040;-46
2021/10/04 04:44:31;;;;;;;11.63;6.57;;;;;;;;;;5015541;28;20022;-46
2021/10/04 04:46:57;;;;;;;16.95;8.65;;;;;;;;;;5015388;28;20029;-46
2021/10/04 04:49:26;;;;;;;12.93;7.97;;;;;;;;;;5015265;28;20113;-46
2021/10/04 04:51:56;;;;;;;12.48;6.63;;;;;;;;;;5015350;28;20096;-46
2021/10/04 04:54:22;;;;;;;15.82;8.23;;;;;;;;;;5015344;28;20057;-46
2021/10/04 04:56:48;;;;;;;11.52;7.32;;;;;;;;;;5014985;28;20022;-46
2021/10/04 04:59:15;;;;;;;27.85;10.90;;;;;;;;;;5015337;28;20109;-46
2021/10/04 05:01:42;;;;;;;29.08;8.68;;;;;;;;;;5015236;28;20052;-46
2021/10/04 05:04:10;;;;;;;21.48;11.10;;;;;;;;;;5015082;28;20032;-46
2021/10/04 05:06:36;;;;;;;19.30;9.40;;;;;;;;;;5015042;28;20030;-45
2021/10/04 05:09:03;;;;;;;17.10;8.25;;;;;;;;;;5014877;28;20025;-46
2021/10/04 05:11:29;;;;;;;24.13;9.48;;;;;;;;;;5014807;28;20537;-47
2021/10/04 05:13:55;;;;;;;15.45;8.00;;;;;;;;;;5014809;28;20112;-46
2021/10/04 05:16:23;;;;;;;9.93;6.38;;;;;;;;;;5014739;28;20092;-46
2021/10/04 05:18:49;;;;;;;16.13;7.88;;;;;;;;;;5015038;28;20018;-47
2021/10/04 05:21:15;;;;;;;14.60;6.90;;;;;;;;;;5014611;28;20498;-46
2021/10/04 05:23:41;;;;;;;17.48;6.88;;;;;;;;;;5014661;28;20567;-46
2021/10/04 05:26:08;;;;;;;11.57;7.72;;;;;;;;;;5014603;28;20490;-47
2021/10/04 05:28:34;;;;;;;16.30;6.10;;;;;;;;;;5014447;28;20080;-47
2021/10/04 05:31:00;;;;;;;14.00;7.53;;;;;;;;;;5014900;28;20033;-47
2021/10/04 05:33:26;;;;;;;16.55;6.05;;;;;;;;;;5014600;28;20393;-50
2021/10/04 05:35:52;;;;;;;12.20;5.82;;;;;;;;;;5014264;28;20050;-54
2021/10/04 05:38:18;;;;;;;11.82;6.60;;;;;;;;;;5014556;28;20049;-47
2021/10/04 05:40:45;;;;;;;14.25;6.55;;;;;;;;;;5014136;28;20019;-47
2021/10/04 05:43:11;;;;;;;12.60;6.43;;;;;;;;;;5014464;28;20407;-47
2021/10/04 05:45:37;;;;;;;10.95;5.55;;;;;;;;;;5014694;28;20029;-50
2021/10/04 05:48:03;;;;;;;13.73;6.03;;;;;;;;;;5014495;28;20084;-47
2021/10/04 05:50:29;;;;;;;11.25;5.93;;;;;;;;;;5014338;28;20026;-47
2021/10/04 05:52:56;;;;;;;11.52;5.90;;;;;;;;;;5014325;28;20034;-47
2021/10/04 05:55:22;;;;;;;19.08;5.90;;;;;;;;;;5013980;28;20029;-47
2021/10/04 05:57:48;;;;;;;10.05;5.60;;;;;;;;;;5014306;28;20112;-51
2021/10/04 06:00:15;;;;;;;14.70;7.57;;;;;;;;;;5014130;28;20036;-48
2021/10/04 06:02:41;;;;;;;13.50;5.43;;;;;;;;;;5014291;28;20447;-54
2021/10/04 06:05:08;;;;;;;9.55;5.30;;;;;;;;;;5013894;28;20053;-48
2021/10/04 06:07:34;;;;;;;13.15;5.82;;;;;;;;;;5013974;28;20076;-48
2021/10/04 06:10:01;;;;;;;16.52;6.50;;;;;;;;;;5013634;28;20482;-48
2021/10/04 06:12:27;;;;;;;12.27;6.53;;;;;;;;;;5013708;28;20044;-48
2021/10/04 06:14:54;;;;;;;11.23;6.07;;;;;;;;;;5014026;28;20030;-48
2021/10/04 06:17:21;;;;;;;14.48;7.57;;;;;;;;;;5014179;28;20482;-48
2021/10/04 06:19:47;;;;;;;8.32;6.95;;;;;;;;;;5013818;28;20026;-48
2021/10/04 06:22:13;;;;;;;12.55;6.03;;;;;;;;;;5013936;28;20093;-50
2021/10/04 06:24:42;;;;;;;11.00;6.13;;;;;;;;;;5013552;28;20375;-48
2021/10/04 06:27:08;;;;;;;12.68;5.43;;;;;;;;;;5013566;28;20014;-48
2021/10/04 06:29:34;;;;;;;13.75;5.68;;;;;;;;;;5013430;28;20170;-48
2021/10/04 06:32:00;;;;;;;8.82;5.97;;;;;;;;;;5013580;28;20084;-50
2021/10/04 06:34:26;;;;;;;15.98;7.30;;;;;;;;;;5012740;28;20046;-48
2021/10/04 06:36:52;;;;;;;14.13;6.25;;;;;;;;;;5013577;28;20084;-54
2021/10/04 06:39:18;;;;;;;9.57;5.72;;;;;;;;;;5013451;28;20061;-49
2021/10/04 06:41:44;;;;;;;13.27;5.00;;;;;;;;;;5013194;28;20061;-49
2021/10/04 06:44:11;;;;;;;13.00;5.53;;;;;;;;;;5013540;28;20029;-51
2021/10/04 06:46:38;;;;;;;13.95;5.40;;;;;;;;;;5013426;28;20036;-51
2021/10/04 06:49:05;;;;;;;10.25;5.25;;;;;;;;;;5013440;28;20355;-48
2021/10/04 06:51:31;;;;;;;12.52;5.35;;;;;;;;;;5013397;28;20044;-48
2021/10/04 06:53:57;;;;;;;13.20;5.00;;;;;;;;;;5013154;28;20038;-58
2021/10/04 06:56:26;;;;;;;9.98;5.20;;;;;;;;;;5013363;28;20080;-46
2021/10/04 06:58:52;;;;;;;6.80;4.60;;;;;;;;;;5013304;28;20552;-47
2021/10/04 07:01:18;;;;;;;9.82;4.97;;;;;;;;;;5013555;28;20060;-51
2021/10/04 07:03:45;;;;;;;8.88;5.78;;;;;;;;;;5013548;28;20029;-52
2021/10/04 07:06:11;;;;;;;10.35;6.40;;;;;;;;;;5013287;28;20038;-48
2021/10/04 07:08:37;;;;;;;11.55;6.40;;;;;;;;;;5013311;28;20072;-47
2021/10/04 07:11:05;;;;;;;19.85;10.05;;;;;;;;;;5012922;28;20167;-57
2021/10/04 07:13:32;;;;;;;16.13;8.65;;;;;;;;;;5013286;28;20069;-47
2021/10/04 07:15:58;;;;;;;8.25;5.00;;;;;;;;;;5013237;28;20050;-57
2021/10/04 07:18:24;;;;;;;15.50;6.18;;;;;;;;;;5013208;28;20030;-48
2021/10/04 07:20:51;;;;;;;11.52;6.75;;;;;;;;;;5013227;28;20033;-49
2021/10/04 07:23:17;;;;;;;9.50;5.40;;;;;;;;;;5013165;28;20026;-48
2021/10/04 07:25:43;;;;;;;12.27;5.97;;;;;;;;;;5012897;28;20062;-50
2021/10/04 07:28:09;;;;;;;15.00;7.50;;;;;;;;;;5013047;28;20070;-50
2021/10/04 07:30:38;;;;;;;7.10;5.03;;;;;;;;;;5013149;28;20101;-55
2021/10/04 07:33:05;;;;;;;8.63;5.03;;;;;;;;;;5013051;28;20053;-50
2021/10/04 07:35:32;;;;;;;12.55;6.00;;;;;;;;;;5012877;28;20046;-49
2021/10/04 07:37:58;;;;;;;11.60;5.93;;;;;;;;;;5013289;28;20026;-49
2021/10/04 07:40:24;;;;;;;11.68;5.22;;;;;;;;;;5012931;28;20029;-55
2021/10/04 07:42:51;;;;;;;13.18;6.78;;;;;;;;;;5013007;28;20018;-48
2021/10/04 07:45:17;;;;;;;13.30;6.68;;;;;;;;;;5015172;28;20048;-49
2021/10/04 07:47:43;;;;;;;9.38;5.50;;;;;;;;;;5016794;28;20074;-49
2021/10/04 07:50:10;;;;;;;6.88;5.20;;;;;;;;;;5016459;28;20033;-49
2021/10/04 07:52:37;;;;;;;84.78;61.72;;;;;;;;;;5016385;28;20030;-47
2021/10/04 07:55:05;;;;;;;27.70;19.95;;;;;;;;;;5016109;28;20097;-47
2021/10/04 07:57:32;;;;;;;75.63;54.65;;;;;;;;;;5016136;28;20030;-47
2021/10/04 07:59:58;;;;;;;40.22;22.85;;;;;;;;;;5016139;28;20026;-47
2021/10/04 08:02:24;;;;;;;47.28;32.42;;;;;;;;;;5016195;28;20026;-51
2021/10/04 08:04:50;;;;;;;11.18;5.80;;;;;;;;;;5016065;28;20030;-48
2021/10/04 08:07:16;;;;;;;12.02;4.82;;;;;;;;;;5015996;28;20386;-48
2021/10/04 08:09:42;;;;;;;8.23;4.78;;;;;;;;;;5015928;28;20032;-45
2021/10/04 08:12:08;;;;;;;11.50;4.97;;;;;;;;;;5016119;28;20048;-45
2021/10/04 08:14:35;;;;;;;10.27;5.28;;;;;;;;;;5016732;28;20427;-45
2021/10/04 08:17:02;;;;;;;7.15;4.93;;;;;;;;;;5016120;28;20034;-45
2021/10/04 08:19:28;;;;;;;7.88;4.90;;;;;;;;;;5016051;28;20029;-45
2021/10/04 08:21:54;;;;;;;7.78;4.82;;;;;;;;;;5016103;28;20057;-45
2021/10/04 08:24:23;;;;;;;7.45;4.75;;;;;;;;;;5015676;28;20029;-45
2021/10/04 08:26:49;;;;;;;11.50;5.10;;;;;;;;;;5015897;28;20061;-45
2021/10/04 08:29:16;;;;;;;13.52;4.80;;;;;;;;;;5015701;28;20041;-45
2021/10/04 08:31:42;;;;;;;9.57;5.45;;;;;;;;;;5015436;28;20026;-45
2021/10/04 08:34:08;;;;;;;7.80;4.35;;;;;;;;;;5015537;28;20112;-46
2021/10/04 08:36:35;;;;;;;13.40;6.28;;;;;;;;;;5015535;28;20037;-46
2021/10/04 08:39:02;;;;;;;11.38;5.00;;;;;;;;;;5015674;28;20033;-46
2021/10/04 08:41:28;;;;;;;9.27;4.75;;;;;;;;;;5015253;28;20529;-48
2021/10/04 08:43:55;;;;;;;10.82;4.97;;;;;;;;;;5015541;28;20069;-45
2021/10/04 08:46:21;;;;;;;8.27;5.18;;;;;;;;;;5015382;28;20076;-47
2021/10/04 08:48:48;;;;;;;10.30;5.38;;;;;;;;;;5015404;28;20022;-47
2021/10/04 08:51:15;;;;;;;8.73;4.70;;;;;;;;;;5015300;28;20160;-47
2021/10/04 08:53:41;;;;;;;9.27;5.65;;;;;;;;;;5015347;28;20045;-47
2021/10/04 08:56:08;;;;;;;11.52;6.00;;;;;;;;;;5014326;28;20029;-45
2021/10/04 08:58:35;;;;;;;32.60;15.23;;;;;;;;;;5015240;28;20025;-46
2021/10/04 09:01:02;;;;;;;11.13;5.95;;;;;;;;;;5015095;28;20025;-46
2021/10/04 09:03:41;;;;;;;13.55;7.28;;;;;;;;;;5014987;28;20052;-45
2021/10/04 09:06:08;;;;;;;10.63;5.22;;;;;;;;;;5015066;28;20033;-45
2021/10/04 09:08:49;;;;;;;13.57;5.93;;;;;;;;;;5014483;28;20504;-46
2021/10/04 09:11:17;;;;;;;13.00;5.18;;;;;;;;;;5014721;28;20437;-46
2021/10/04 09:13:48;;;;;;;9.85;5.63;;;;;;;;;;5014588;28;20113;-46
2021/10/04 09:16:14;;;;;;;9.13;5.35;;;;;;;;;;5014816;28;20511;-45
2021/10/04 09:18:40;;;;;;;15.18;5.70;;;;;;;;;;5014669;28;20033;-48
2021/10/04 09:21:09;;;;;;;10.25;6.25;;;;;;;;;;5015112;28;20022;-47
2021/10/04 09:23:45;;;;;;;9.77;4.95;;;;;;;;;;5014812;28;20410;-50
2021/10/04 09:26:31;;;;;;;10.75;5.05;;;;;;;;;;5014523;28;20029;-45
2021/10/04 09:29:00;;;;;;;11.65;6.45;;;;;;;;;;5014346;28;20025;-47
2021/10/04 09:31:27;;;;;;;10.13;5.80;;;;;;;;;;5014472;28;20052;-46
2021/10/04 09:34:04;;;;;;;11.75;5.82;;;;;;;;;;5014049;28;20064;-46
2021/10/04 09:36:31;;;;;;;9.65;5.25;;;;;;;;;;5014415;28;20034;-49
2021/10/04 09:39:18;;;;;;;10.48;5.00;;;;;;;;;;5014355;28;20022;-46
2021/10/04 09:41:57;;;;;;;17.30;6.85;;;;;;;;;;5014262;28;20022;-45
2021/10/04 09:44:24;;;;;;;10.85;4.50;;;;;;;;;;5014251;28;20469;-46
2021/10/04 09:46:54;;;;;;;10.43;5.40;;;;;;;;;;5014112;28;20025;-47
2021/10/04 09:49:20;;;;;;;12.45;5.18;;;;;;;;;;5014250;28;20018;-44
2021/10/04 09:51:53;;;;;;;13.23;5.55;;;;;;;;;;5014580;28;20109;-46
2021/10/04 09:54:19;;;;;;;10.60;5.20;;;;;;;;;;5014046;28;20030;-44
2021/10/04 09:56:45;;;;;;;8.10;4.78;;;;;;;;;;5014314;28;20470;-44
2021/10/04 09:59:12;;;;;;;10.43;4.97;;;;;;;;;;5013988;28;20030;-44
2021/10/04 10:01:38;;;;;;;11.75;4.90;;;;;;;;;;5014044;28;20450;-44
2021/10/04 10:04:09;;;;;;;7.93;4.70;;;;;;;;;;5014236;28;20042;-44
2021/10/04 10:06:35;;;;;;;15.13;5.13;;;;;;;;;;5013900;28;20417;-44
2021/10/04 10:09:02;;;;;;;10.70;5.18;;;;;;;;;;5013179;28;20505;-44
2021/10/04 10:11:31;;;;;;;11.13;4.80;;;;;;;;;;5013629;28;20044;-44
2021/10/04 10:14:00;;;;;;;10.45;4.97;;;;;;;;;;5013593;28;20030;-45
2021/10/04 10:16:36;;;;;;;13.77;7.88;;;;;;;;;;5013649;28;20049;-45
2021/10/04 10:19:07;;;;;;;11.07;5.18;;;;;;;;;;5013759;28;20379;-44
2021/10/04 10:21:34;;;;;;;13.60;5.97;;;;;;;;;;5013558;28;20030;-44
2021/10/04 10:24:01;;;;;;;14.48;5.68;;;;;;;;;;5013609;28;20025;-44
2021/10/04 10:26:41;;;;;;;17.45;5.90;;;;;;;;;;5013299;28;20529;-44
2021/10/04 10:29:12;;;;;;;17.63;5.57;;;;;;;;;;5013398;28;20049;-44
2021/10/04 10:31:55;;;;;;;10.82;4.95;;;;;;;;;;5013327;28;20037;-44
2021/10/04 10:34:24;;;;;;;16.75;5.85;;;;;;;;;;5013336;28;20494;-44
2021/10/04 10:36:56;;;;;;;14.75;5.72;;;;;;;;;;5013420;28;20101;-44
2021/10/04 10:39:45;;;;;;;14.65;5.28;;;;;;;;;;5013488;28;20022;-44
2021/10/04 10:42:26;;;;;;;16.38;5.13;;;;;;;;;;5013422;28;20038;-51
2021/10/04 10:44:58;;;;;;;9.77;4.95;;;;;;;;;;5013253;28;20030;-47
2021/10/04 10:47:36;;;;;;;9.45;4.72;;;;;;;;;;5013286;28;20533;-45
2021/10/04 10:50:07;;;;;;;13.63;7.00;;;;;;;;;;5013410;28;20032;-47
2021/10/04 10:52:36;;;;;;;16.17;8.77;;;;;;;;;;5013294;28;20050;-45
2021/10/04 10:55:22;;;;;;;11.07;6.13;;;;;;;;;;5013169;28;20054;-46
2021/10/04 10:57:51;;;;;;;15.68;7.80;;;;;;;;;;5013787;28;20033;-45
2021/10/04 11:00:19;;;;;;;13.75;6.10;;;;;;;;;;5013304;28;20458;-45
2021/10/04 11:03:00;;;;;;;12.27;6.13;;;;;;;;;;5013253;28;20030;-45
2021/10/04 11:05:38;;;;;;;12.15;4.53;;;;;;;;;;5013508;28;20030;-45
2021/10/04 11:08:11;;;;;;;11.93;5.50;;;;;;;;;;5013203;28;20431;-46
2021/10/04 11:11:04;;;;;;;25.67;12.82;;;;;;;;;;5012997;28;20455;-50
2021/10/04 11:13:31;;;;;;;11.73;6.85;;;;;;;;;;5009386;28;20042;-46
2021/10/04 11:15:59;;;;;;;24.27;8.70;;;;;;;;;;5013589;28;20054;-47
2021/10/04 11:18:34;;;;;;;14.45;6.35;;;;;;;;;;5013048;28;20033;-49
2021/10/04 11:21:02;;;;;;;8.00;4.75;;;;;;;;;;5016591;28;20030;-50
2021/10/04 11:23:28;;;;;;;10.98;5.63;;;;;;;;;;5017181;28;20033;-45
2021/10/04 11:25:55;;;;;;;14.63;6.00;;;;;;;;;;5016968;28;20030;-50
2021/10/04 11:28:37;;;;;;;11.55;5.28;;;;;;;;;;5016844;28;20068;-50
2021/10/04 11:31:08;;;;;;;10.18;6.07;;;;;;;;;;5016808;28;20473;-49
2021/10/04 11:33:40;;;;;;;8.48;4.97;;;;;;;;;;5016614;28;20125;-50
2021/10/04 11:36:10;;;;;;;16.20;7.60;;;;;;;;;;4999841;28;20045;-45
2021/10/04 11:38:48;;;;;;;19.93;7.07;;;;;;;;;;5017114;28;20112;-45
2021/10/04 11:41:20;;;;;;;12.68;5.57;;;;;;;;;;5016655;28;20033;-48
2021/10/04 11:43:46;;;;;;;26.98;5.80;;;;;;;;;;5017115;28;20022;-45
2021/10/04 11:46:16;;;;;;;12.50;5.45;;;;;;;;;;5017003;28;20030;-47
2021/10/04 11:48:43;;;;;;;10.90;5.85;;;;;;;;;;5016486;28;20081;-47
2021/10/04 11:51:11;;;;;;;10.10;5.10;;;;;;;;;;5016443;28;20030;-50
2021/10/04 11:53:39;;;;;;;11.15;5.22;;;;;;;;;;5016348;28;20121;-45
2021/10/04 11:56:10;;;;;;;8.90;5.50;;;;;;;;;;5016518;28;20022;-45
2021/10/04 11:58:46;;;;;;;14.15;6.40;;;;;;;;;;5016255;28;20108;-46
2021/10/04 12:01:12;;;;;;;12.45;5.55;;;;;;;;;;5016768;28;20022;-47
2021/10/04 12:03:39;;;;;;;10.65;5.95;;;;;;;;;;5016315;28;20033;-51
2021/10/04 12:06:08;;;;;;;8.40;4.93;;;;;;;;;;5016522;28;20100;-45
2021/10/04 12:08:39;;;;;;;12.80;6.90;;;;;;;;;;5016687;28;20029;-46
2021/10/04 12:11:07;;;;;;;18.30;6.15;;;;;;;;;;5015978;28;20022;-46
2021/10/04 12:13:42;;;;;;;15.02;5.82;;;;;;;;;;4993502;28;20121;-50
2021/10/04 12:16:10;;;;;;;12.20;6.13;;;;;;;;;;4986925;28;20513;-48
2021/10/04 12:18:49;;;;;;;16.10;7.45;;;;;;;;;;4985149;28;20030;-46
2021/10/04 12:21:20;;;;;;;12.93;6.60;;;;;;;;;;4985254;28;20053;-46
2021/10/04 12:24:04;;;;;;;19.60;10.45;;;;;;;;;;4985130;28;20061;-48
2021/10/04 12:26:30;;;;;;;32.13;17.13;;;;;;;;;;4984577;28;20023;-48
2021/10/04 12:28:57;;;;;;;12.02;5.70;;;;;;;;;;4986273;28;20069;-45
2021/10/04 12:31:34;;;;;;;12.60;6.63;;;;;;;;;;4984930;28;20031;-51
2021/10/04 12:34:00;;;;;;;27.77;12.50;;;;;;;;;;4983740;28;20038;-46
2021/10/04 12:36:26;;;;;;;9.98;5.40;;;;;;;;;;4975846;28;20027;-45
2021/10/04 12:38:59;;;;;;;52.47;9.52;;;;;;;;;;4975604;28;20062;-48
2021/10/04 12:41:39;;;;;;;19.08;11.63;;;;;;;;;;4975911;28;20452;-50
2021/10/04 12:44:20;;;;;;;19.37;10.30;;;;;;;;;;4974811;28;20154;-46
2021/10/04 12:47:02;;;;;;;17.52;5.85;;;;;;;;;;4976381;28;20029;-40
2021/10/04 12:49:31;;;;;;;14.77;8.75;;;;;;;;;;4976331;28;20162;-45
2021/10/04 12:52:01;;;;;;;60.47;29.13;;;;;;;;;;4976635;28;20066;-59
2021/10/04 12:54:28;;;;;;;11.47;5.80;;;;;;;;;;4975562;28;20035;-57
2021/10/04 12:56:54;;;;;;;21.42;8.65;;;;;;;;;;4975499;28;20094;-55
2021/10/04 12:59:25;;;;;;;28.77;15.32;;;;;;;;;;4975531;28;20027;-49
2021/10/04 13:01:52;;;;;;;83.60;43.72;;;;;;;;;;4975411;28;20089;-51
2021/10/04 13:04:26;;;;;;;50.70;25.25;;;;;;;;;;4975653;28;20026;-50
2021/10/04 13:06:54;;;;;;;24.15;13.02;;;;;;;;;;4975516;28;20387;-43
2021/10/04 13:09:23;;;;;;;95.63;64.53;;;;;;;;;;4975263;28;20014;-51
2021/10/04 13:11:50;;;;;;;82.18;52.17;;;;;;;;;;4975392;28;20044;-49
2021/10/04 13:14:18;;;;;;;21.52;12.23;;;;;;;;;;4975252;28;20035;-51
2021/10/04 13:16:44;;;;;;;20.08;9.05;;;;;;;;;;4975309;28;20022;-56
2021/10/04 13:19:10;;;;;;;13.88;6.10;;;;;;;;;;4975392;28;20105;-50
2021/10/04 13:21:37;;;;;;;35.42;20.50;;;;;;;;;;4975253;28;20501;-50
2021/10/04 13:24:03;;;;;;;431.83;312.25;;;;;;;;;;4975522;28;20039;-48
2021/10/04 13:26:33;;;;;;;73.78;48.85;;;;;;;;;;4975815;28;20038;-53
2021/10/04 13:28:59;;;;;;;47.92;35.22;;;;;;;;;;4975599;28;20038;-57
2021/10/04 13:31:25;;;;;;;29.38;18.63;;;;;;;;;;4976140;28;20031;-51
2021/10/04 13:33:52;;;;;;;14.82;8.90;;;;;;;;;;4975256;28;20521;-50
2021/10/04 13:36:19;;;;;;;8.77;5.32;;;;;;;;;;4975546;28;20034;-51
2021/10/04 13:38:45;;;;;;;15.13;5.43;;;;;;;;;;4975851;28;20370;-50
2021/10/04 13:41:12;;;;;;;15.05;5.10;;;;;;;;;;4975544;28;20030;-50
2021/10/04 13:43:38;;;;;;;9.68;5.00;;;;;;;;;;4975239;28;20050;-55
2021/10/04 13:46:05;;;;;;;10.15;4.88;;;;;;;;;;4975249;28;20045;-56
2021/10/04 13:48:31;;;;;;;11.10;5.15;;;;;;;;;;4975275;28;20479;-50
2021/10/04 13:50:58;;;;;;;12.55;4.97;;;;;;;;;;4975314;28;20463;-52
2021/10/04 13:53:25;;;;;;;12.73;5.97;;;;;;;;;;4974743;28;20035;-55
2021/10/04 13:55:52;;;;;;;8.85;4.60;;;;;;;;;;4975273;28;20027;-51
2021/10/04 13:58:18;;;;;;;34.40;9.18;;;;;;;;;;4975116;28;20027;-51
2021/10/04 14:00:44;;;;;;;8.35;5.00;;;;;;;;;;4975093;28;20027;-49
2021/10/04 14:03:11;;;;;;;25.00;7.28;;;;;;;;;;4974973;28;20035;-49
2021/10/04 14:05:38;;;;;;;20.27;7.07;;;;;;;;;;4974947;28;20039;-50
2021/10/04 14:08:04;;;;;;;16.83;8.13;;;;;;;;;;4975023;28;20034;-48
2021/10/04 14:10:30;;;;;;;10.35;6.13;;;;;;;;;;4974920;28;20030;-50
2021/10/04 14:12:57;;;;;;;8.23;4.95;;;;;;;;;;4974311;28;20026;-50
2021/10/04 14:15:26;;;;;;;8.27;5.38;;;;;;;;;;4974672;28;20037;-49
2021/10/04 14:17:52;;;;;;;10.88;5.03;;;;;;;;;;4975083;28;20050;-50
2021/10/04 14:20:18;;;;;;;9.82;5.38;;;;;;;;;;4974844;28;20037;-48
2021/10/04 14:22:45;;;;;;;15.77;5.18;;;;;;;;;;4974363;28;20029;-49
2021/10/04 14:25:11;;;;;;;15.43;5.20;;;;;;;;;;4974767;28;20030;-53
2021/10/04 14:27:38;;;;;;;6.28;4.35;;;;;;;;;;4974767;28;20361;-53
2021/10/04 14:30:04;;;;;;;6.20;4.00;;;;;;;;;;4974660;28;20479;-54
2021/10/04 14:32:30;;;;;;;13.10;4.90;;;;;;;;;;4973339;28;20392;-54
2021/10/04 14:34:56;;;;;;;11.30;5.32;;;;;;;;;;4983670;28;20049;-54